createdAt,value
2022-08-20T00:03:50.288Z,6.60
2022-08-20T00:08:56.840Z,6.80
2022-08-20T00:14:02.576Z,7.90
2022-08-20T00:19:08.348Z,6.10
2022-08-20T00:24:10.342Z,6.30
2022-08-20T00:29:12.784Z,7.20
2022-08-20T00:34:17.144Z,6.30
2022-08-20T00:39:22.554Z,7.50
2022-08-20T00:44:25.196Z,6.80
2022-08-20T00:49:31.170Z,6.10
2022-08-20T00:54:53.341Z,7.00
2022-08-20T00:59:56.940Z,6.50
2022-08-20T01:04:58.898Z,6.40
2022-08-20T01:10:04.933Z,6.20
2022-08-20T01:15:11.488Z,6.10
2022-08-20T01:20:20.283Z,5.60
2022-08-20T01:25:36.731Z,6.80
2022-08-20T01:30:40.178Z,6.00
2022-08-20T01:35:42.778Z,6.30
2022-08-20T01:41:00.900Z,6.00
2022-08-20T01:46:04.139Z,7.20
2022-08-20T01:51:09.745Z,6.50
2022-08-20T01:56:15.108Z,6.40
2022-08-20T02:01:21.858Z,7.00
2022-08-20T02:06:26.099Z,7.90
2022-08-20T02:11:29.857Z,8.50
2022-08-20T02:16:36.428Z,7.50
2022-08-20T02:21:43.665Z,8.20
2022-08-20T02:26:45.657Z,7.70
2022-08-20T02:32:24.809Z,8.50
2022-08-20T02:37:10.171Z,7.80
2022-08-20T02:42:12.310Z,9.70
2022-08-20T02:47:14.151Z,8.80
2022-08-20T02:52:16.121Z,7.50
2022-08-20T02:57:22.500Z,7.20
2022-08-20T03:02:24.860Z,8.10
2022-08-20T03:07:27.133Z,9.90
2022-08-20T03:12:29.104Z,9.70
2022-08-20T03:17:31.106Z,10.30
2022-08-20T03:22:33.452Z,10.70
2022-08-20T03:27:36.299Z,10.40
2022-08-20T03:32:39.837Z,8.40
2022-08-20T03:37:44.774Z,25.60
2022-08-20T03:42:52.354Z,22.10
2022-08-20T03:47:55.106Z,13.80
2022-08-20T03:52:58.125Z,15.80
2022-08-20T03:58:05.821Z,15.50
2022-08-20T04:03:08.588Z,18.60
2022-08-20T04:08:20.204Z,18.40
2022-08-20T04:13:22.763Z,17.60
2022-08-20T04:18:26.705Z,16.30
2022-08-20T04:23:30.267Z,14.70
2022-08-20T04:28:34.160Z,16.70
2022-08-20T04:33:36.117Z,12.80
2022-08-20T04:38:48.233Z,12.80
2022-08-20T04:43:54.690Z,13.80
2022-08-20T04:48:57.219Z,15.00
2022-08-20T04:54:00.296Z,15.60
2022-08-20T04:59:02.207Z,16.80
2022-08-20T05:04:04.159Z,15.40
2022-08-20T05:09:07.812Z,13.20
2022-08-20T05:14:15.090Z,14.60
2022-08-20T05:19:17.024Z,15.30
2022-08-20T05:24:21.031Z,17.30
2022-08-20T05:29:23.192Z,16.40
2022-08-20T05:34:25.900Z,16.70
2022-08-20T05:39:28.692Z,19.80
2022-08-20T05:44:31.164Z,19.40
2022-08-20T05:49:33.705Z,21.00
2022-08-20T05:54:37.931Z,23.60
2022-08-20T05:59:40.006Z,27.20
2022-08-20T06:09:46.023Z,30.10
2022-08-20T06:14:48.133Z,29.30
2022-08-20T06:19:50.263Z,28.20
2022-08-20T06:24:52.452Z,28.40
2022-08-20T06:35:00.032Z,29.80
2022-08-20T06:40:12.993Z,26.80
2022-08-20T06:45:18.922Z,27.40
2022-08-20T06:50:31.740Z,27.70
2022-08-20T06:55:39.378Z,27.60
2022-08-20T07:00:53.411Z,25.10
2022-08-20T07:05:58.320Z,27.60
2022-08-20T07:11:02.068Z,27.70
2022-08-20T07:16:08.406Z,25.00
2022-08-20T07:21:12.067Z,26.80
2022-08-20T07:26:14.140Z,27.60
2022-08-20T07:31:36.131Z,28.90
2022-08-20T07:36:38.441Z,26.40
2022-08-20T07:41:42.086Z,26.00
2022-08-20T07:46:47.996Z,25.50
2022-08-20T07:51:50.255Z,23.70
2022-08-20T07:56:53.793Z,24.90
2022-08-20T08:01:56.489Z,25.20
2022-08-20T08:07:00.315Z,24.60
2022-08-20T08:12:04.494Z,25.00
2022-08-20T08:17:07.415Z,25.50
2022-08-20T08:22:12.821Z,23.20
2022-08-20T08:27:18.842Z,22.30
2022-08-20T08:32:21.891Z,23.90
2022-08-20T08:37:24.896Z,22.90
2022-08-20T08:42:43.284Z,24.40
2022-08-20T08:47:47.005Z,23.10
2022-08-20T08:53:00.014Z,23.60
2022-08-20T08:58:16.492Z,25.20
2022-08-20T09:03:26.244Z,22.50
2022-08-20T09:08:44.738Z,24.10
2022-08-20T09:13:50.527Z,22.40
2022-08-20T09:18:53.246Z,20.30
2022-08-20T09:23:58.642Z,20.00
2022-08-20T09:29:01.012Z,21.70
2022-08-20T09:34:07.191Z,18.20
2022-08-20T09:39:18.578Z,23.30
2022-08-20T09:44:27.600Z,21.70
2022-08-20T09:49:31.241Z,20.70
2022-08-20T09:54:34.805Z,21.40
2022-08-20T09:59:37.490Z,20.00
2022-08-20T10:04:39.585Z,21.00
2022-08-20T10:09:43.549Z,19.00
2022-08-20T10:14:48.448Z,18.40
2022-08-20T10:19:52.506Z,20.30
2022-08-20T10:24:55.487Z,17.80
2022-08-20T10:29:57.514Z,17.50
2022-08-20T10:35:00.365Z,19.00
2022-08-20T10:40:06.401Z,20.00
2022-08-20T10:45:14.943Z,20.30
2022-08-20T10:50:19.972Z,20.20
2022-08-20T10:55:22.480Z,20.00
2022-08-20T11:00:26.060Z,21.40
2022-08-20T11:05:28.578Z,19.10
2022-08-20T11:10:43.579Z,19.90
2022-08-20T11:15:45.762Z,19.50
2022-08-20T11:20:50.525Z,19.70
2022-08-20T11:25:53.666Z,18.90
2022-08-20T11:31:06.504Z,19.30
2022-08-20T11:36:08.641Z,18.20
2022-08-20T11:41:13.322Z,19.30
2022-08-20T11:46:24.332Z,17.80
2022-08-20T11:51:31.042Z,19.00
2022-08-20T11:56:52.005Z,17.50
2022-08-20T12:02:02.261Z,17.80
2022-08-20T12:07:12.072Z,17.30
2022-08-20T12:12:20.238Z,16.60
2022-08-20T12:17:32.122Z,16.80
2022-08-20T12:22:34.429Z,15.50
2022-08-20T12:27:37.273Z,15.80
2022-08-20T12:32:42.196Z,17.10
2022-08-20T12:37:45.308Z,16.70
2022-08-20T12:42:50.401Z,16.60
2022-08-20T12:48:01.165Z,17.00
2022-08-20T12:53:10.387Z,16.70
2022-08-20T12:58:20.294Z,16.00
2022-08-20T13:03:22.393Z,16.10
2022-08-20T13:08:24.265Z,15.70
2022-08-20T13:13:26.265Z,15.50
2022-08-20T13:18:29.684Z,17.50
2022-08-20T13:23:31.660Z,14.90
2022-08-20T13:28:34.318Z,14.10
2022-08-20T13:33:36.270Z,14.80
2022-08-20T13:38:43.038Z,14.70
2022-08-20T13:43:45.114Z,14.10
2022-08-20T13:48:47.186Z,13.80
2022-08-20T13:53:50.294Z,12.90
2022-08-20T13:58:53.230Z,12.30
2022-08-20T14:03:55.217Z,12.80
2022-08-20T14:08:58.330Z,12.10
2022-08-20T14:14:00.949Z,12.10
2022-08-20T14:19:03.694Z,13.20
2022-08-20T14:24:06.224Z,11.70
2022-08-20T14:29:08.138Z,11.80
2022-08-20T14:34:10.134Z,12.30
2022-08-20T14:39:12.296Z,12.80
2022-08-20T14:44:14.305Z,11.80
2022-08-20T14:49:16.273Z,11.00
2022-08-20T14:54:18.423Z,12.40
2022-08-20T14:59:20.425Z,11.20
2022-08-20T15:04:22.590Z,12.30
2022-08-20T15:09:24.704Z,11.00
2022-08-20T15:14:27.030Z,12.60
2022-08-20T15:19:31.352Z,13.20
2022-08-20T15:24:33.528Z,14.90
2022-08-20T15:29:35.534Z,16.60
2022-08-20T15:34:39.199Z,15.50
2022-08-20T15:39:42.835Z,15.00
2022-08-20T15:44:45.953Z,16.40
2022-08-20T15:49:52.236Z,11.20
2022-08-20T15:55:02.266Z,7.50
2022-08-20T16:00:35.801Z,6.60
2022-08-20T16:05:46.703Z,4.90
2022-08-20T16:11:07.069Z,7.00
2022-08-20T16:16:47.013Z,4.30
2022-08-20T16:21:53.601Z,4.00
2022-08-20T16:27:40.161Z,3.80
2022-08-20T16:32:50.628Z,4.30
2022-08-20T16:38:22.119Z,3.40
2022-08-20T16:43:35.051Z,3.00
2022-08-20T16:48:39.034Z,2.50
2022-08-20T16:53:45.237Z,2.70
2022-08-20T16:58:51.052Z,2.60
2022-08-20T17:03:59.976Z,2.80
2022-08-20T17:09:19.476Z,2.40
2022-08-20T17:14:36.117Z,3.00
2022-08-20T17:19:40.587Z,3.50
2022-08-20T17:24:42.801Z,2.90
2022-08-20T17:30:08.700Z,2.90
2022-08-20T17:35:22.131Z,3.70
2022-08-20T17:40:29.985Z,3.60
2022-08-20T17:45:40.547Z,4.20
2022-08-20T17:50:44.247Z,4.20
2022-08-20T17:55:50.865Z,4.90
2022-08-20T18:00:52.976Z,4.10
2022-08-20T18:06:08.263Z,3.90
2022-08-20T18:11:12.367Z,3.90
2022-08-20T18:16:34.472Z,4.40
2022-08-20T18:21:55.333Z,3.70
2022-08-20T18:27:10.080Z,4.80
2022-08-20T18:32:38.687Z,4.90
2022-08-20T18:37:40.852Z,4.40
2022-08-20T18:42:46.003Z,4.80
2022-08-20T18:47:47.939Z,4.50
2022-08-20T18:52:53.093Z,4.90
2022-08-20T18:58:12.298Z,4.90
2022-08-20T19:03:23.945Z,5.00
2022-08-20T19:08:41.307Z,4.60
2022-08-20T19:13:59.818Z,6.10
2022-08-20T19:19:01.981Z,4.90
2022-08-20T19:24:08.322Z,5.20
2022-08-20T19:29:17.012Z,5.80
2022-08-20T19:34:23.975Z,5.80
2022-08-20T19:39:28.476Z,5.70
2022-08-20T19:44:33.943Z,5.90
2022-08-20T19:50:01.716Z,6.40
2022-08-20T19:55:05.237Z,5.90
2022-08-20T20:00:17.139Z,6.20
2022-08-20T20:05:19.766Z,6.40
2022-08-20T20:10:32.319Z,6.40
2022-08-20T20:15:40.258Z,6.00
2022-08-20T20:20:50.153Z,6.50
2022-08-20T20:26:06.139Z,7.20
2022-08-20T20:31:13.104Z,8.60
2022-08-20T20:36:17.961Z,8.90
2022-08-20T20:41:23.818Z,8.90
2022-08-20T20:46:30.871Z,9.30
2022-08-20T20:51:43.045Z,9.50
2022-08-20T20:56:57.111Z,10.10
2022-08-20T21:02:00.420Z,9.50
2022-08-20T21:07:12.001Z,10.70
2022-08-20T21:12:14.040Z,10.00
2022-08-20T21:17:24.776Z,9.50
2022-08-20T21:22:28.593Z,8.70
2022-08-20T21:27:31.277Z,9.90
2022-08-20T21:32:39.232Z,9.60
2022-08-20T21:37:52.440Z,7.70
2022-08-20T21:42:54.431Z,6.50
2022-08-20T21:47:57.081Z,7.30
2022-08-20T21:58:04.237Z,6.40
2022-08-20T22:03:06.933Z,5.40
2022-08-20T22:08:10.531Z,5.70
2022-08-20T22:13:13.814Z,5.50
2022-08-20T22:18:20.438Z,5.50
2022-08-20T22:23:27.158Z,5.40
2022-08-20T22:28:35.344Z,5.20
2022-08-20T22:33:43.070Z,5.10
2022-08-20T22:38:54.659Z,4.60
2022-08-20T22:44:02.002Z,4.70
2022-08-20T22:49:10.824Z,4.80
2022-08-20T22:54:22.583Z,5.00
2022-08-20T22:59:26.403Z,5.00
2022-08-20T23:04:37.897Z,5.20
2022-08-20T23:09:52.473Z,6.00
2022-08-20T23:15:00.130Z,5.30
2022-08-20T23:20:14.060Z,6.20
2022-08-20T23:25:16.158Z,6.20
2022-08-20T23:30:19.426Z,6.90
2022-08-20T23:35:22.262Z,6.70
2022-08-20T23:40:28.668Z,6.30
2022-08-20T23:45:31.135Z,7.50
2022-08-20T23:55:35.510Z,7.20
